createdAt,value
2022-08-21T00:00:01.031Z,67.2
2022-08-21T00:05:01.069Z,63.0
2022-08-21T00:10:00.997Z,63.7
2022-08-21T00:15:01.157Z,62.9
2022-08-21T00:20:01.065Z,62.5
2022-08-21T00:25:01.101Z,62.8
2022-08-21T00:30:01.053Z,62.6
2022-08-21T00:35:01.160Z,62.7
2022-08-21T00:40:01.052Z,63.6
2022-08-21T00:45:01.163Z,64.4
2022-08-21T00:50:01.034Z,64.8
2022-08-21T00:55:01.099Z,65.6
2022-08-21T01:00:01.025Z,65.8
2022-08-21T01:05:01.142Z,66.5
2022-08-21T01:10:01.040Z,65.4
2022-08-21T01:15:01.192Z,64.5
2022-08-21T01:20:01.375Z,64.4
2022-08-21T01:25:01.146Z,64.3
2022-08-21T01:30:01.016Z,64.2
2022-08-21T01:35:01.082Z,65.4
2022-08-21T01:40:01.058Z,66.6
2022-08-21T01:45:01.093Z,67.4
2022-08-21T01:50:01.026Z,67.7
2022-08-21T01:55:01.161Z,68.6
2022-08-21T02:00:01.030Z,68.2
2022-08-21T02:05:01.099Z,67.6
2022-08-21T02:10:01.036Z,66.8
2022-08-21T02:15:01.111Z,66.0
2022-08-21T02:20:01.041Z,66.3
2022-08-21T02:25:01.177Z,66.8
2022-08-21T02:30:01.043Z,68.1
2022-08-21T02:35:01.106Z,69.2
2022-08-21T02:40:01.086Z,70.3
2022-08-21T02:45:01.118Z,70.1
2022-08-21T02:50:01.053Z,69.3
2022-08-21T02:55:01.180Z,68.3
2022-08-21T03:00:01.074Z,67.3
2022-08-21T03:05:01.165Z,70.7
2022-08-21T03:10:01.006Z,69.8
2022-08-21T03:15:01.114Z,71.2
2022-08-21T03:20:00.977Z,71.6
2022-08-21T03:25:01.097Z,72.7
2022-08-21T03:30:01.284Z,70.0
2022-08-21T03:35:01.085Z,70.8
2022-08-21T03:40:00.991Z,71.1
2022-08-21T03:45:01.011Z,72.4
2022-08-21T03:50:00.943Z,72.2
2022-08-21T03:55:01.002Z,71.0
2022-08-21T04:00:00.933Z,70.8
2022-08-21T04:05:01.062Z,69.9
2022-08-21T04:10:00.940Z,69.1
2022-08-21T04:15:01.029Z,69.2
2022-08-21T04:20:02.015Z,70.3
2022-08-21T04:25:01.123Z,71.0
2022-08-21T04:30:01.006Z,71.7
2022-08-21T04:35:01.081Z,72.3
2022-08-21T04:40:02.071Z,71.6
2022-08-21T04:45:01.088Z,70.7
2022-08-21T04:50:01.015Z,70.1
2022-08-21T04:55:01.149Z,69.6
2022-08-21T05:00:01.013Z,70.2
2022-08-21T05:05:01.146Z,70.7
2022-08-21T05:10:01.035Z,70.9
2022-08-21T05:15:01.083Z,70.4
2022-08-21T05:20:01.043Z,71.1
2022-08-21T05:25:02.103Z,69.8
2022-08-21T05:30:01.043Z,69.3
2022-08-21T05:35:01.118Z,67.7
2022-08-21T05:40:05.493Z,67.0
2022-08-21T05:45:01.088Z,72.5
2022-08-21T05:50:01.063Z,71.5
2022-08-21T05:55:02.754Z,71.1
2022-08-21T06:00:03.653Z,70.9
2022-08-21T06:05:01.082Z,70.6
2022-08-21T06:10:02.034Z,62.4
2022-08-21T06:15:01.152Z,61.6
2022-08-21T06:20:01.009Z,60.7
2022-08-21T06:25:01.075Z,61.8
2022-08-21T06:30:01.028Z,60.3
2022-08-21T06:35:02.116Z,59.8
2022-08-21T06:40:01.060Z,60.0
2022-08-21T06:45:01.144Z,59.8
2022-08-21T06:50:01.013Z,58.2
2022-08-21T06:55:01.199Z,59.2
2022-08-21T07:00:00.999Z,59.8
2022-08-21T07:05:01.066Z,59.7
2022-08-21T07:10:00.995Z,60.2
2022-08-21T07:15:01.058Z,60.7
2022-08-21T07:20:00.994Z,61.2
2022-08-21T07:25:01.057Z,62.2
2022-08-21T07:30:00.986Z,62.4
2022-08-21T07:35:01.052Z,62.9
2022-08-21T07:40:01.036Z,63.8
2022-08-21T07:45:01.047Z,63.6
2022-08-21T07:50:00.978Z,63.8
2022-08-21T07:55:05.461Z,64.0
2022-08-21T08:00:01.019Z,64.3
2022-08-21T08:05:01.211Z,63.9
2022-08-21T08:10:01.017Z,63.7
2022-08-21T08:15:06.102Z,62.9
2022-08-21T08:35:01.671Z,60.0
2022-08-21T08:40:01.676Z,60.5
2022-08-21T08:45:01.676Z,61.0
2022-08-21T08:50:01.603Z,61.1
2022-08-21T09:05:01.168Z,61.0
2022-08-21T09:10:01.030Z,65.0
2022-08-21T09:25:01.514Z,64.0
2022-08-21T09:30:01.371Z,63.6
2022-08-21T09:35:01.507Z,62.3
2022-08-21T09:40:01.412Z,62.7
2022-08-21T09:45:01.487Z,62.8
2022-08-21T09:50:01.352Z,62.2
2022-08-21T09:55:01.415Z,62.5
2022-08-21T10:00:01.343Z,64.0
2022-08-21T10:05:01.420Z,64.5
2022-08-21T10:10:01.346Z,64.9
2022-08-21T10:15:01.625Z,65.9
2022-08-21T10:20:01.342Z,65.8
2022-08-21T10:25:01.475Z,66.0
2022-08-21T10:30:02.364Z,65.6
2022-08-21T10:35:01.437Z,66.1
2022-08-21T10:40:01.432Z,66.0
2022-08-21T10:45:01.398Z,66.1
2022-08-21T10:50:01.329Z,65.6
2022-08-21T10:55:01.427Z,66.2
2022-08-21T11:00:01.378Z,66.4
2022-08-21T11:05:01.456Z,66.1
2022-08-21T11:10:01.335Z,66.3
2022-08-21T11:15:01.390Z,66.3
2022-08-21T11:20:01.327Z,66.6
2022-08-21T11:25:01.462Z,66.0
2022-08-21T11:30:06.358Z,66.8
2022-08-21T11:35:01.741Z,67.2
2022-08-21T11:40:01.462Z,67.3
2022-08-21T11:45:01.433Z,66.6
2022-08-21T12:05:00.868Z,64.8
2022-08-21T12:25:01.334Z,66.0
2022-08-21T12:30:01.185Z,66.1
2022-08-21T12:35:01.263Z,65.7
2022-08-21T12:40:02.682Z,65.4
2022-08-21T12:45:01.367Z,65.8
2022-08-21T12:50:01.193Z,65.6
2022-08-21T12:55:01.303Z,65.0
2022-08-21T13:00:01.236Z,63.8
2022-08-21T13:05:02.322Z,63.1
2022-08-21T13:10:01.185Z,62.2
2022-08-21T13:15:01.258Z,61.8
2022-08-21T13:25:01.549Z,61.1
2022-08-21T13:35:01.203Z,61.4
2022-08-21T13:40:01.192Z,61.5
2022-08-21T13:45:01.196Z,63.9
2022-08-21T13:50:01.146Z,63.5
2022-08-21T13:55:01.253Z,62.9
2022-08-21T14:00:01.158Z,63.1
2022-08-21T14:05:01.130Z,62.8
2022-08-21T14:10:01.172Z,59.1
2022-08-21T14:15:01.200Z,58.5
2022-08-21T14:25:01.292Z,58.1
2022-08-21T14:30:01.152Z,58.7
2022-08-21T14:35:02.183Z,59.4
2022-08-21T14:45:01.221Z,61.0
2022-08-21T14:50:01.138Z,62.6
2022-08-21T14:55:01.200Z,64.3
2022-08-21T15:00:01.988Z,64.7
2022-08-21T15:05:01.254Z,65.6
2022-08-21T15:10:02.152Z,65.4
2022-08-21T15:15:01.192Z,64.9
2022-08-21T15:20:01.147Z,64.7
2022-08-21T15:25:01.199Z,64.6
2022-08-21T15:35:01.266Z,64.8
2022-08-21T15:40:01.172Z,64.4
2022-08-21T15:45:01.215Z,64.7
2022-08-21T15:50:01.144Z,64.6
2022-08-21T15:55:01.218Z,65.0
2022-08-21T16:00:01.168Z,64.6
2022-08-21T16:05:01.307Z,64.5
2022-08-21T16:15:01.244Z,63.8
2022-08-21T16:20:01.182Z,63.3
2022-08-21T16:25:01.253Z,65.3
2022-08-21T16:30:01.194Z,65.3
2022-08-21T16:35:01.336Z,66.0
2022-08-21T16:40:01.294Z,65.6
2022-08-21T16:45:01.271Z,64.8
2022-08-21T16:50:02.224Z,61.4
2022-08-21T16:55:01.269Z,60.7
2022-08-21T17:00:01.207Z,59.6
2022-08-21T17:05:01.226Z,60.1
2022-08-21T17:10:01.142Z,61.4
2022-08-21T17:15:01.200Z,62.5
2022-08-21T17:25:01.180Z,62.3
2022-08-21T17:30:01.104Z,62.5
2022-08-21T17:35:01.248Z,62.0
2022-08-21T17:40:01.187Z,60.9
2022-08-21T17:45:01.188Z,59.9
2022-08-21T17:50:01.179Z,59.6
2022-08-21T17:55:01.202Z,58.4
2022-08-21T18:00:01.115Z,57.5
2022-08-21T18:05:01.246Z,56.5
2022-08-21T18:15:01.183Z,54.8
2022-08-21T18:20:01.110Z,53.1
2022-08-21T18:25:01.178Z,51.4
2022-08-21T18:30:01.109Z,50.2
2022-08-21T18:35:01.174Z,48.3
2022-08-21T18:45:01.162Z,46.7
2022-08-21T18:50:01.128Z,44.8
2022-08-21T18:55:01.867Z,42.8
2022-08-21T19:00:01.121Z,41.1
2022-08-21T19:05:01.095Z,42.1
2022-08-21T19:10:24.149Z,41.5
2022-08-21T19:15:06.076Z,42.2
2022-08-21T19:20:01.155Z,43.5
2022-08-21T19:25:01.091Z,43.6
2022-08-21T19:35:01.088Z,42.7
2022-08-21T19:40:01.140Z,42.3
2022-08-21T19:45:01.081Z,41.9
2022-08-21T19:50:01.103Z,46.4
2022-08-21T19:55:01.083Z,46.0
2022-08-21T20:00:01.153Z,45.4
2022-08-21T20:05:01.107Z,46.0
2022-08-21T20:10:01.118Z,46.8
2022-08-21T20:15:01.130Z,42.7
2022-08-21T20:20:01.134Z,43.3
2022-08-21T20:30:01.139Z,44.2
2022-08-21T20:35:01.138Z,44.6
2022-08-21T20:45:01.147Z,45.3
2022-08-21T20:50:01.151Z,46.4
2022-08-21T20:55:01.155Z,47.2
2022-08-21T21:00:01.163Z,47.9
2022-08-21T21:05:01.164Z,48.6
2022-08-21T21:10:01.197Z,47.9
2022-08-21T21:15:01.178Z,48.0
2022-08-21T21:20:01.178Z,46.8
2022-08-21T21:25:01.185Z,47.1
2022-08-21T21:30:01.562Z,47.2
2022-08-21T21:35:01.190Z,47.5
2022-08-21T21:45:01.202Z,50.6
2022-08-21T22:05:00.879Z,47.2
2022-08-21T22:10:05.610Z,47.7
2022-08-21T22:15:00.709Z,49.7
2022-08-21T22:20:00.687Z,49.5
2022-08-21T22:25:00.755Z,49.8
2022-08-21T22:30:00.672Z,52.0
2022-08-21T22:35:00.762Z,53.3
2022-08-21T22:40:00.670Z,54.3
2022-08-21T22:45:00.724Z,54.9
2022-08-21T22:50:04.507Z,55.6
2022-08-21T22:55:00.740Z,55.0
2022-08-21T23:00:00.686Z,56.1
2022-08-21T23:05:00.864Z,56.2
2022-08-21T23:10:00.728Z,57.2
2022-08-21T23:25:01.622Z,59.4
2022-08-21T23:45:01.009Z,56.0
